createdAt,value
2022-08-20T00:02:16.958Z,25.05
2022-08-20T00:04:46.190Z,25.00
2022-08-20T00:07:16.377Z,24.71
2022-08-20T00:09:45.363Z,24.73
2022-08-20T00:12:17.863Z,24.39
2022-08-20T00:14:46.412Z,23.97
2022-08-20T00:17:16.526Z,24.34
2022-08-20T00:19:44.830Z,24.03
2022-08-20T00:22:13.598Z,23.96
2022-08-20T00:24:42.094Z,23.14
2022-08-20T00:27:10.481Z,23.43
2022-08-20T00:29:39.120Z,23.62
2022-08-20T00:32:08.258Z,23.65
2022-08-20T00:34:37.957Z,23.82
2022-08-20T00:37:06.467Z,23.80
2022-08-20T00:39:34.828Z,23.90
2022-08-20T00:42:03.759Z,23.72
2022-08-20T00:44:32.206Z,23.69
2022-08-20T00:47:01.178Z,23.54
2022-08-20T00:49:32.005Z,23.57
2022-08-20T00:52:03.784Z,23.68
2022-08-20T00:54:36.385Z,23.43
2022-08-20T00:57:09.403Z,22.88
2022-08-20T00:59:40.271Z,23.14
2022-08-20T01:02:11.247Z,23.60
2022-08-20T01:04:39.817Z,23.81
2022-08-20T01:07:09.827Z,23.57
2022-08-20T01:09:58.231Z,23.48
2022-08-20T01:12:29.394Z,22.33
2022-08-20T01:15:00.305Z,-146.19
2022-08-20T01:17:32.545Z,-146.19
2022-08-20T01:20:05.822Z,-146.19
2022-08-20T01:22:58.633Z,38.03
2022-08-20T01:25:32.217Z,28.54
2022-08-20T01:28:02.389Z,27.28
2022-08-20T01:30:33.404Z,26.22
2022-08-20T01:33:02.651Z,25.87
2022-08-20T01:35:31.256Z,26.07
2022-08-20T01:37:59.597Z,26.12
2022-08-20T01:40:41.575Z,25.94
2022-08-20T01:43:12.360Z,25.54
2022-08-20T01:45:43.020Z,25.61
2022-08-20T01:48:11.981Z,25.59
2022-08-20T01:50:44.455Z,25.92
2022-08-20T01:53:21.347Z,25.79
2022-08-20T01:55:49.637Z,26.11
2022-08-20T01:58:20.050Z,25.50
2022-08-20T02:00:48.510Z,25.39
2022-08-20T02:03:16.818Z,25.56
2022-08-20T02:05:45.267Z,25.92
2022-08-20T02:08:13.654Z,26.26
2022-08-20T02:10:41.976Z,26.01
2022-08-20T02:13:10.319Z,25.89
2022-08-20T02:15:42.955Z,25.72
2022-08-20T02:18:16.060Z,26.00
2022-08-20T02:20:45.233Z,25.72
2022-08-20T02:23:15.949Z,25.80
2022-08-20T02:25:47.538Z,26.03
2022-08-20T02:28:18.438Z,25.74
2022-08-20T02:30:51.890Z,25.52
2022-08-20T02:33:24.082Z,25.38
2022-08-20T02:35:56.814Z,25.96
2022-08-20T02:38:25.925Z,25.11
2022-08-20T02:40:54.332Z,25.17
2022-08-20T02:43:23.038Z,25.18
2022-08-20T02:45:53.738Z,25.07
2022-08-20T02:48:23.335Z,24.72
2022-08-20T02:50:54.719Z,24.95
2022-08-20T02:53:24.251Z,25.27
2022-08-20T02:55:52.726Z,25.00
2022-08-20T02:58:22.469Z,25.57
2022-08-20T03:00:52.272Z,25.75
2022-08-20T03:03:22.818Z,25.09
2022-08-20T03:05:54.062Z,25.19
2022-08-20T03:08:23.201Z,24.48
2022-08-20T03:10:52.801Z,24.83
2022-08-20T03:13:21.966Z,25.24
2022-08-20T03:15:58.759Z,25.66
2022-08-20T03:18:30.823Z,25.50
2022-08-20T03:20:59.668Z,25.67
2022-08-20T03:23:28.014Z,24.91
2022-08-20T03:25:56.976Z,25.44
2022-08-20T03:28:25.716Z,25.89
2022-08-20T03:30:56.482Z,25.45
2022-08-20T03:33:24.885Z,25.42
2022-08-20T03:35:53.353Z,25.66
2022-08-20T03:38:32.345Z,25.37
2022-08-20T03:41:02.933Z,25.52
2022-08-20T03:43:31.698Z,25.65
2022-08-20T03:46:01.466Z,25.99
2022-08-20T03:48:30.224Z,26.05
2022-08-20T03:51:00.901Z,25.91
2022-08-20T03:53:31.762Z,25.35
2022-08-20T03:56:03.646Z,25.72
2022-08-20T03:58:35.854Z,25.61
2022-08-20T04:01:09.053Z,25.82
2022-08-20T04:03:58.637Z,25.53
2022-08-20T04:06:27.759Z,25.47
2022-08-20T04:08:56.154Z,25.19
2022-08-20T04:11:24.902Z,25.21
2022-08-20T04:13:53.232Z,25.42
2022-08-20T04:16:24.119Z,25.74
2022-08-20T04:18:57.236Z,25.69
2022-08-20T04:21:32.782Z,25.68
2022-08-20T04:24:02.246Z,25.54
2022-08-20T04:26:31.069Z,25.68
2022-08-20T04:28:59.652Z,26.00
2022-08-20T04:31:33.604Z,25.57
2022-08-20T04:34:02.860Z,25.31
2022-08-20T04:36:31.261Z,25.49
2022-08-20T04:38:59.622Z,25.27
2022-08-20T04:41:28.019Z,24.94
2022-08-20T04:43:58.255Z,24.71
2022-08-20T04:46:29.368Z,24.78
2022-08-20T04:48:58.388Z,24.27
2022-08-20T04:51:27.072Z,24.62
2022-08-20T04:53:57.471Z,24.49
2022-08-20T04:56:27.759Z,24.34
2022-08-20T04:58:58.697Z,24.31
2022-08-20T05:01:29.464Z,24.08
2022-08-20T05:03:58.771Z,23.89
2022-08-20T05:06:29.596Z,23.83
2022-08-20T05:08:59.701Z,23.89
2022-08-20T05:11:33.468Z,23.64
2022-08-20T05:14:06.857Z,23.39
2022-08-20T05:16:39.214Z,23.69
2022-08-20T05:19:09.597Z,23.59
2022-08-20T05:21:38.242Z,23.75
2022-08-20T05:24:07.365Z,23.90
2022-08-20T05:26:36.062Z,23.86
2022-08-20T05:29:06.502Z,23.44
2022-08-20T05:31:35.590Z,23.32
2022-08-20T05:34:09.775Z,24.06
2022-08-20T05:36:40.013Z,23.50
2022-08-20T05:39:08.842Z,23.98
2022-08-20T05:41:37.923Z,24.18
2022-08-20T05:44:09.933Z,24.47
2022-08-20T05:46:41.024Z,23.65
2022-08-20T05:49:11.884Z,24.32
2022-08-20T05:51:40.430Z,24.62
2022-08-20T05:54:09.775Z,24.33
2022-08-20T05:56:38.225Z,25.04
2022-08-20T05:59:07.955Z,24.47
2022-08-20T06:01:38.745Z,24.23
2022-08-20T06:04:26.684Z,24.38
2022-08-20T06:07:03.404Z,24.73
2022-08-20T06:09:32.763Z,24.76
2022-08-20T06:12:03.025Z,24.81
2022-08-20T06:14:31.964Z,24.48
2022-08-20T06:17:05.674Z,24.61
2022-08-20T06:19:34.946Z,24.60
2022-08-20T06:22:17.858Z,24.13
2022-08-20T06:24:50.161Z,24.56
2022-08-20T06:27:18.931Z,24.52
2022-08-20T06:29:47.394Z,24.41
2022-08-20T06:32:15.936Z,24.10
2022-08-20T06:34:49.824Z,24.33
2022-08-20T06:37:23.272Z,24.26
2022-08-20T06:40:02.715Z,24.14
2022-08-20T06:42:31.238Z,24.04
2022-08-20T06:45:00.514Z,24.05
2022-08-20T06:47:29.558Z,24.25
2022-08-20T06:49:58.122Z,24.75
2022-08-20T06:52:51.521Z,24.19
2022-08-20T06:55:17.508Z,24.21
2022-08-20T06:57:47.462Z,24.28
2022-08-20T07:00:17.767Z,23.90
2022-08-20T07:02:46.374Z,23.93
2022-08-20T07:05:16.131Z,24.39
2022-08-20T07:07:49.459Z,23.33
2022-08-20T07:10:19.143Z,24.17
2022-08-20T07:12:50.535Z,23.69
2022-08-20T07:15:20.533Z,24.04
2022-08-20T07:17:54.044Z,24.32
2022-08-20T07:20:25.292Z,24.38
2022-08-20T07:22:55.092Z,24.42
2022-08-20T07:25:24.526Z,24.39
2022-08-20T07:27:52.930Z,24.69
2022-08-20T07:30:57.142Z,24.70
2022-08-20T07:33:28.414Z,24.76
2022-08-20T07:35:57.285Z,24.72
2022-08-20T07:38:28.418Z,24.43
2022-08-20T07:40:58.990Z,24.87
2022-08-20T07:43:28.322Z,25.28
2022-08-20T07:46:00.698Z,25.38
2022-08-20T07:48:31.642Z,25.41
2022-08-20T07:51:02.940Z,25.25
2022-08-20T07:53:35.708Z,25.61
2022-08-20T07:56:06.450Z,25.05
2022-08-20T07:58:35.318Z,25.07
2022-08-20T08:01:03.777Z,25.15
2022-08-20T08:03:39.711Z,25.52
2022-08-20T08:06:28.446Z,25.22
2022-08-20T08:09:01.690Z,24.82
2022-08-20T08:11:30.543Z,24.86
2022-08-20T08:14:00.475Z,24.91
2022-08-20T08:16:31.035Z,24.99
2022-08-20T08:19:01.905Z,24.29
2022-08-20T08:21:31.473Z,24.25
2022-08-20T08:24:02.582Z,24.26
2022-08-20T08:26:31.028Z,24.47
2022-08-20T08:28:59.411Z,24.56
2022-08-20T08:31:27.870Z,24.43
2022-08-20T08:33:56.426Z,24.71
2022-08-20T08:36:27.321Z,24.97
2022-08-20T08:38:56.698Z,24.56
2022-08-20T08:41:31.858Z,24.37
2022-08-20T08:44:07.429Z,24.63
2022-08-20T08:46:40.564Z,23.95
2022-08-20T08:49:11.815Z,24.34
2022-08-20T08:51:45.010Z,24.79
2022-08-20T08:54:16.585Z,24.81
2022-08-20T08:56:49.789Z,24.48
2022-08-20T08:59:20.477Z,24.14
2022-08-20T09:01:55.233Z,24.20
2022-08-20T09:04:30.430Z,24.27
2022-08-20T09:06:59.059Z,24.72
2022-08-20T09:09:31.479Z,25.13
2022-08-20T09:12:05.498Z,24.86
2022-08-20T09:14:34.172Z,24.31
2022-08-20T09:17:02.988Z,25.00
2022-08-20T09:19:31.960Z,24.58
2022-08-20T09:22:00.306Z,25.27
2022-08-20T09:24:28.714Z,24.85
2022-08-20T09:26:57.161Z,25.39
2022-08-20T09:29:26.990Z,25.19
2022-08-20T09:32:05.448Z,25.20
2022-08-20T09:34:37.263Z,25.80
2022-08-20T09:37:05.765Z,25.60
2022-08-20T09:39:34.106Z,25.06
2022-08-20T09:42:09.885Z,24.78
2022-08-20T09:44:39.952Z,25.38
2022-08-20T09:47:08.504Z,25.96
2022-08-20T09:49:37.377Z,25.91
2022-08-20T09:52:08.262Z,25.82
2022-08-20T09:54:37.752Z,25.58
2022-08-20T09:57:07.980Z,25.77
2022-08-20T09:59:37.262Z,25.16
2022-08-20T10:02:07.023Z,25.53
2022-08-20T10:04:35.429Z,25.39
2022-08-20T10:07:08.242Z,25.42
2022-08-20T10:09:36.740Z,25.98
2022-08-20T10:12:05.501Z,25.40
2022-08-20T10:14:33.952Z,25.47
2022-08-20T10:17:03.098Z,25.43
2022-08-20T10:19:33.194Z,26.33
2022-08-20T10:22:01.868Z,26.80
2022-08-20T10:24:31.116Z,26.63
2022-08-20T10:27:00.436Z,26.77
2022-08-20T10:29:29.506Z,27.07
2022-08-20T10:31:58.085Z,26.20
2022-08-20T10:34:27.013Z,25.60
2022-08-20T10:36:56.797Z,26.74
2022-08-20T10:39:25.174Z,26.88
2022-08-20T10:41:53.611Z,27.45
2022-08-20T10:44:21.988Z,27.25
2022-08-20T10:46:50.371Z,26.96
2022-08-20T10:49:25.602Z,27.02
2022-08-20T10:51:53.946Z,26.66
2022-08-20T10:54:23.671Z,26.60
2022-08-20T10:56:52.098Z,26.97
2022-08-20T10:59:20.500Z,27.54
2022-08-20T11:01:48.879Z,27.57
2022-08-20T11:04:17.261Z,26.90
2022-08-20T11:06:45.686Z,26.80
2022-08-20T11:09:14.041Z,28.04
2022-08-20T11:11:43.748Z,28.19
2022-08-20T11:14:12.149Z,28.20
2022-08-20T11:16:40.533Z,27.10
2022-08-20T11:19:08.972Z,27.69
2022-08-20T11:21:37.333Z,28.16
2022-08-20T11:24:06.006Z,28.17
2022-08-20T11:26:34.349Z,27.92
2022-08-20T11:29:04.006Z,28.03
2022-08-20T11:31:32.352Z,28.25
2022-08-20T11:34:00.691Z,28.37
2022-08-20T11:36:29.173Z,28.30
2022-08-20T11:38:57.467Z,28.25
2022-08-20T11:41:25.792Z,27.62
2022-08-20T11:44:17.373Z,28.91
2022-08-20T11:46:43.759Z,29.34
2022-08-20T11:49:12.190Z,29.11
2022-08-20T11:51:48.983Z,29.58
2022-08-20T11:54:18.374Z,28.91
2022-08-20T11:56:46.826Z,29.28
2022-08-20T11:59:15.412Z,29.57
2022-08-20T12:02:01.993Z,29.25
2022-08-20T12:04:33.500Z,29.62
2022-08-20T12:07:09.511Z,28.55
2022-08-20T12:09:40.044Z,28.96
2022-08-20T12:12:15.116Z,28.63
2022-08-20T12:14:43.487Z,29.61
2022-08-20T12:17:14.759Z,28.30
2022-08-20T12:19:43.718Z,29.07
2022-08-20T12:22:24.985Z,29.13
2022-08-20T12:24:53.995Z,28.44
2022-08-20T12:27:23.950Z,28.60
2022-08-20T12:29:54.753Z,27.59
2022-08-20T12:32:26.069Z,27.37
2022-08-20T12:34:54.406Z,28.02
2022-08-20T12:37:24.395Z,29.25
2022-08-20T12:39:56.211Z,29.82
2022-08-20T12:42:24.658Z,29.41
2022-08-20T12:44:52.988Z,29.36
2022-08-20T12:47:23.539Z,28.10
2022-08-20T12:49:55.255Z,29.15
2022-08-20T12:52:26.239Z,27.17
2022-08-20T12:54:55.141Z,27.13
2022-08-20T12:57:28.395Z,26.82
2022-08-20T12:59:57.170Z,28.24
2022-08-20T13:02:27.765Z,27.02
2022-08-20T13:05:00.099Z,27.55
2022-08-20T13:07:31.871Z,27.15
2022-08-20T13:10:00.867Z,27.66
2022-08-20T13:12:29.505Z,27.19
2022-08-20T13:14:58.036Z,27.36
2022-08-20T13:17:33.679Z,26.66
2022-08-20T13:20:11.720Z,27.51
2022-08-20T13:22:40.266Z,28.30
2022-08-20T13:25:09.719Z,27.76
2022-08-20T13:27:38.757Z,28.51
2022-08-20T13:30:09.206Z,27.76
2022-08-20T13:32:37.590Z,27.67
2022-08-20T13:35:06.844Z,28.35
2022-08-20T13:37:36.638Z,28.28
2022-08-20T13:40:07.317Z,28.45
2022-08-20T13:42:36.318Z,28.54
2022-08-20T13:45:05.963Z,27.74
2022-08-20T13:47:36.824Z,28.36
2022-08-20T13:50:08.246Z,28.70
2022-08-20T13:52:39.261Z,28.16
2022-08-20T13:55:12.574Z,27.36
2022-08-20T13:57:41.949Z,27.28
2022-08-20T14:00:15.371Z,27.76
2022-08-20T14:02:44.293Z,27.49
2022-08-20T14:05:14.227Z,26.50
2022-08-20T14:07:48.718Z,26.52
2022-08-20T14:10:19.021Z,26.17
2022-08-20T14:12:48.348Z,26.16
2022-08-20T14:15:17.446Z,26.07
2022-08-20T14:17:51.566Z,26.21
2022-08-20T14:20:22.017Z,26.08
2022-08-20T14:22:51.711Z,26.98
2022-08-20T14:25:21.538Z,27.10
2022-08-20T14:27:50.649Z,27.29
2022-08-20T14:30:22.630Z,26.82
2022-08-20T14:32:51.942Z,27.40
2022-08-20T14:35:20.751Z,27.58
2022-08-20T14:37:53.112Z,27.84
2022-08-20T14:40:23.503Z,27.97
2022-08-20T14:42:52.102Z,27.69
2022-08-20T14:45:21.186Z,27.87
2022-08-20T14:47:53.753Z,27.71
2022-08-20T14:50:25.148Z,27.82
2022-08-20T14:52:55.509Z,27.55
2022-08-20T14:55:25.836Z,26.89
2022-08-20T14:57:54.436Z,26.77
2022-08-20T15:00:25.694Z,25.64
2022-08-20T15:02:54.018Z,25.22
2022-08-20T15:05:22.414Z,23.20
2022-08-20T15:07:54.417Z,22.13
2022-08-20T15:10:24.799Z,21.82
2022-08-20T15:12:52.979Z,22.09
2022-08-20T15:15:21.401Z,22.61
2022-08-20T15:17:51.830Z,22.11
2022-08-20T15:20:21.164Z,21.96
2022-08-20T15:22:50.872Z,21.68
2022-08-20T15:25:24.089Z,21.75
2022-08-20T15:27:52.744Z,21.89
2022-08-20T15:30:23.472Z,21.90
2022-08-20T15:32:55.053Z,21.49
2022-08-20T15:35:24.100Z,21.29
2022-08-20T15:37:54.713Z,21.69
2022-08-20T15:40:28.400Z,21.40
2022-08-20T15:42:57.330Z,21.58
2022-08-20T15:45:25.884Z,21.32
2022-08-20T15:47:57.207Z,21.07
2022-08-20T15:50:37.911Z,21.52
2022-08-20T15:53:06.872Z,21.48
2022-08-20T15:55:37.460Z,21.49
2022-08-20T15:58:11.668Z,21.51
2022-08-20T16:00:42.889Z,21.85
2022-08-20T16:03:47.592Z,21.82
2022-08-20T16:06:19.237Z,22.07
2022-08-20T16:08:58.054Z,22.39
2022-08-20T16:11:33.858Z,22.73
2022-08-20T16:14:12.298Z,22.36
2022-08-20T16:16:44.896Z,22.50
2022-08-20T16:19:18.612Z,22.33
2022-08-20T16:21:48.949Z,23.03
2022-08-20T16:24:19.817Z,22.99
2022-08-20T16:26:59.497Z,22.69
2022-08-20T16:29:35.073Z,22.50
2022-08-20T16:32:07.043Z,22.89
2022-08-20T16:34:38.776Z,22.89
2022-08-20T16:37:25.295Z,22.65
2022-08-20T16:40:19.800Z,22.77
2022-08-20T16:42:52.297Z,22.38
2022-08-20T16:45:23.112Z,22.95
2022-08-20T16:47:52.389Z,23.25
2022-08-20T16:50:24.063Z,23.03
2022-08-20T16:52:52.653Z,22.66
2022-08-20T16:55:21.918Z,22.87
2022-08-20T16:57:53.117Z,22.69
2022-08-20T17:00:25.096Z,22.35
2022-08-20T17:02:55.170Z,22.49
2022-08-20T17:05:25.748Z,22.89
2022-08-20T17:07:57.300Z,22.94
2022-08-20T17:10:29.344Z,23.20
2022-08-20T17:13:00.199Z,23.19
2022-08-20T17:15:29.949Z,22.88
2022-08-20T17:17:58.308Z,22.87
2022-08-20T17:20:28.112Z,23.36
2022-08-20T17:23:10.224Z,23.07
2022-08-20T17:25:39.001Z,23.33
2022-08-20T17:28:16.785Z,23.19
2022-08-20T17:30:46.259Z,23.41
2022-08-20T17:33:25.335Z,22.75
2022-08-20T17:35:56.296Z,23.06
2022-08-20T17:38:29.203Z,23.31
2022-08-20T17:41:00.403Z,23.30
2022-08-20T17:43:31.696Z,23.85
2022-08-20T17:46:02.908Z,24.06
2022-08-20T17:48:35.383Z,23.90
2022-08-20T17:51:09.694Z,23.98
2022-08-20T17:53:40.522Z,23.63
2022-08-20T17:56:15.347Z,23.53
2022-08-20T17:58:54.357Z,23.97
2022-08-20T18:01:25.810Z,23.42
2022-08-20T18:03:54.644Z,23.63
2022-08-20T18:06:30.816Z,23.75
2022-08-20T18:09:04.391Z,24.22
2022-08-20T18:11:36.497Z,24.17
2022-08-20T18:14:26.020Z,23.67
2022-08-20T18:17:10.199Z,24.26
2022-08-20T18:19:58.304Z,23.92
2022-08-20T18:22:27.827Z,23.83
2022-08-20T18:25:01.977Z,23.72
2022-08-20T18:27:34.874Z,24.03
2022-08-20T18:30:05.355Z,24.12
2022-08-20T18:32:34.566Z,23.77
2022-08-20T18:35:14.872Z,23.99
2022-08-20T18:37:43.278Z,22.88
2022-08-20T18:40:19.028Z,23.71
2022-08-20T18:42:48.245Z,23.89
2022-08-20T18:45:29.159Z,23.45
2022-08-20T18:47:57.740Z,23.78
2022-08-20T18:50:31.934Z,23.73
2022-08-20T18:53:12.085Z,24.00
2022-08-20T18:55:42.740Z,23.93
2022-08-20T18:58:13.689Z,24.23
2022-08-20T19:00:45.398Z,23.46
2022-08-20T19:03:18.430Z,24.14
2022-08-20T19:06:04.054Z,23.69
2022-08-20T19:08:42.915Z,24.16
2022-08-20T19:11:32.286Z,24.34
2022-08-20T19:14:23.209Z,23.99
2022-08-20T19:16:58.093Z,23.93
2022-08-20T19:19:30.786Z,23.83
2022-08-20T19:22:02.195Z,23.74
2022-08-20T19:24:33.124Z,23.43
2022-08-20T19:27:04.474Z,23.88
2022-08-20T19:29:36.511Z,23.87
2022-08-20T19:32:08.668Z,24.12
2022-08-20T19:34:37.543Z,24.03
2022-08-20T19:37:31.592Z,23.77
2022-08-20T19:40:07.317Z,23.53
2022-08-20T19:42:42.380Z,23.58
2022-08-20T19:45:18.580Z,23.72
2022-08-20T19:47:55.138Z,23.24
2022-08-20T19:50:29.967Z,23.08
2022-08-20T19:53:03.263Z,22.75
2022-08-20T19:55:34.100Z,23.38
2022-08-20T19:58:05.755Z,23.38
2022-08-20T20:00:42.251Z,22.96
2022-08-20T20:03:12.417Z,23.04
2022-08-20T20:05:48.268Z,23.46
2022-08-20T20:08:16.640Z,23.31
2022-08-20T20:10:46.774Z,23.42
2022-08-20T20:13:17.924Z,23.42
2022-08-20T20:15:46.418Z,23.26
2022-08-20T20:18:16.117Z,23.51
2022-08-20T20:20:57.081Z,23.65
2022-08-20T20:23:38.793Z,23.74
2022-08-20T20:26:19.986Z,23.85
2022-08-20T20:28:50.506Z,23.05
2022-08-20T20:31:21.725Z,23.39
2022-08-20T20:33:56.220Z,23.46
2022-08-20T20:36:36.589Z,23.37
2022-08-20T20:39:11.215Z,23.40
2022-08-20T20:41:52.335Z,22.85
2022-08-20T20:44:22.398Z,22.52
2022-08-20T20:46:54.294Z,22.58
2022-08-20T20:49:26.658Z,22.63
2022-08-20T20:51:58.900Z,22.80
2022-08-20T20:54:31.557Z,22.98
2022-08-20T20:57:03.182Z,22.98
2022-08-20T20:59:33.515Z,22.96
2022-08-20T21:02:02.091Z,23.14
2022-08-20T21:04:31.800Z,22.33
2022-08-20T21:07:25.009Z,22.45
2022-08-20T21:09:57.314Z,22.55
2022-08-20T21:12:26.259Z,22.67
2022-08-20T21:14:55.892Z,22.99
2022-08-20T21:17:24.334Z,23.16
2022-08-20T21:19:54.035Z,22.65
2022-08-20T21:22:22.400Z,22.53
2022-08-20T21:24:51.472Z,22.80
2022-08-20T21:27:22.018Z,22.59
2022-08-20T21:29:50.104Z,22.20
2022-08-20T21:32:18.594Z,22.22
2022-08-20T21:34:47.096Z,21.90
2022-08-20T21:37:17.842Z,21.87
2022-08-20T21:39:46.340Z,22.26
2022-08-20T21:42:28.217Z,22.15
2022-08-20T21:44:57.991Z,22.23
2022-08-20T21:47:26.601Z,22.22
2022-08-20T21:49:55.260Z,21.84
2022-08-20T21:52:24.914Z,21.97
2022-08-20T21:54:53.616Z,22.33
2022-08-20T21:57:23.681Z,22.11
2022-08-20T21:59:52.072Z,22.52
2022-08-20T22:02:21.734Z,22.65
2022-08-20T22:04:53.880Z,22.50
2022-08-20T22:07:24.384Z,22.59
2022-08-20T22:09:52.675Z,22.25
2022-08-20T22:12:23.860Z,22.50
2022-08-20T22:14:53.010Z,22.37
2022-08-20T22:17:21.641Z,22.14
2022-08-20T22:19:50.013Z,22.40
2022-08-20T22:22:19.748Z,22.20
2022-08-20T22:24:49.463Z,22.25
2022-08-20T22:27:17.849Z,22.13
2022-08-20T22:29:46.246Z,21.84
2022-08-20T22:32:50.532Z,22.18
2022-08-20T22:35:18.245Z,21.93
2022-08-20T22:37:46.988Z,22.24
2022-08-20T22:40:16.819Z,22.50
2022-08-20T22:42:45.162Z,22.27
2022-08-20T22:45:14.954Z,22.02
2022-08-20T22:47:43.711Z,22.10
2022-08-20T22:50:13.167Z,21.80
2022-08-20T22:52:47.461Z,22.39
2022-08-20T22:55:17.183Z,22.01
2022-08-20T22:57:48.472Z,22.10
2022-08-20T23:00:18.483Z,22.22
2022-08-20T23:02:51.274Z,21.95
2022-08-20T23:05:21.902Z,22.25
2022-08-20T23:07:54.014Z,22.07
2022-08-20T23:10:24.368Z,21.95
2022-08-20T23:12:53.015Z,21.96
2022-08-20T23:15:21.620Z,21.85
2022-08-20T23:17:50.038Z,21.93
2022-08-20T23:20:19.157Z,21.85
2022-08-20T23:22:47.645Z,22.01
2022-08-20T23:25:19.112Z,21.77
2022-08-20T23:27:51.014Z,22.13
2022-08-20T23:30:20.697Z,21.87
2022-08-20T23:32:49.286Z,21.87
2022-08-20T23:35:17.995Z,21.78
2022-08-20T23:37:48.988Z,22.17
2022-08-20T23:40:20.028Z,22.05
2022-08-20T23:42:58.796Z,21.94
2022-08-20T23:45:28.582Z,21.82
2022-08-20T23:47:56.932Z,21.84
2022-08-20T23:50:27.984Z,21.71
2022-08-20T23:52:57.416Z,21.54
2022-08-20T23:55:26.051Z,21.58
2022-08-20T23:57:54.852Z,21.79
